createdAt,value
2023-03-17T00:01:13.854Z,4.60
2023-03-17T00:03:41.862Z,2.53
2023-03-17T00:06:29.308Z,5.40
2023-03-17T00:08:57.275Z,1.63
2023-03-17T00:11:24.768Z,2.28
2023-03-17T00:13:51.171Z,1.83
2023-03-17T00:16:24.236Z,2.27
2023-03-17T00:18:51.813Z,2.03
2023-03-17T00:21:29.246Z,8.68
2023-03-17T00:23:56.190Z,3.42
2023-03-17T00:26:23.164Z,1.80
2023-03-17T00:28:51.074Z,1.57
2023-03-17T00:31:24.341Z,1.92
2023-03-17T00:33:52.750Z,4.13
2023-03-17T00:36:22.653Z,1.35
2023-03-17T00:38:49.934Z,3.13
2023-03-17T00:41:16.607Z,5.97
2023-03-17T00:43:42.972Z,2.08
2023-03-17T00:46:16.571Z,5.40
2023-03-17T00:48:44.856Z,3.33
2023-03-17T00:51:12.340Z,1.85
2023-03-17T00:53:38.938Z,1.57
2023-03-17T00:56:13.491Z,2.40
2023-03-17T00:58:40.116Z,1.42
2023-03-17T01:01:06.680Z,2.08
2023-03-17T01:03:33.106Z,1.60
2023-03-17T01:06:01.519Z,1.17
2023-03-17T01:08:30.118Z,2.33
2023-03-17T01:10:56.832Z,1.40
2023-03-17T01:13:23.954Z,3.33
2023-03-17T01:15:52.076Z,1.48
2023-03-17T01:18:21.469Z,1.83
2023-03-17T01:20:48.741Z,1.02
2023-03-17T01:23:15.696Z,1.77
2023-03-17T01:25:43.298Z,1.90
2023-03-17T01:28:13.718Z,1.88
2023-03-17T01:30:40.895Z,0.90
2023-03-17T01:33:09.365Z,2.97
2023-03-17T01:35:38.137Z,3.60
2023-03-17T01:38:05.895Z,3.40
2023-03-17T01:40:35.421Z,1.70
2023-03-17T01:43:10.686Z,1.57
2023-03-17T01:46:14.798Z,2.08
2023-03-17T01:48:50.937Z,2.10
2023-03-17T01:51:23.521Z,3.50
2023-03-17T01:53:52.785Z,4.03
2023-03-17T01:56:20.027Z,1.13
2023-03-17T01:58:49.752Z,1.20
2023-03-17T02:01:16.314Z,1.15
2023-03-17T02:03:42.935Z,1.48
2023-03-17T02:06:09.872Z,3.17
2023-03-17T02:08:36.385Z,2.83
2023-03-17T02:11:05.105Z,1.38
2023-03-17T02:13:32.922Z,2.78
2023-03-17T02:15:59.368Z,2.55
2023-03-17T02:18:25.812Z,2.80
2023-03-17T02:21:28.808Z,1.10
2023-03-17T02:23:56.625Z,1.63
2023-03-17T02:26:25.946Z,1.17
2023-03-17T02:28:52.391Z,4.53
2023-03-17T02:31:19.328Z,2.58
2023-03-17T02:33:45.954Z,2.60
2023-03-17T02:36:12.398Z,1.20
2023-03-17T02:38:38.872Z,1.45
2023-03-17T02:41:07.150Z,0.98
2023-03-17T02:43:33.549Z,4.78
2023-03-17T02:45:59.969Z,1.87
2023-03-17T02:48:26.477Z,1.23
2023-03-17T02:50:52.942Z,1.90
2023-03-17T02:53:19.804Z,1.40
2023-03-17T02:55:46.328Z,3.08
2023-03-17T02:58:12.788Z,1.10
2023-03-17T03:00:40.454Z,0.80
2023-03-17T03:03:06.803Z,2.50
2023-03-17T03:05:33.288Z,1.30
2023-03-17T03:07:59.675Z,4.13
2023-03-17T03:10:26.081Z,1.43
2023-03-17T03:12:52.446Z,5.45
2023-03-17T03:15:19.593Z,2.80
2023-03-17T03:17:45.922Z,1.10
2023-03-17T03:20:13.251Z,1.33
2023-03-17T03:22:39.632Z,1.70
2023-03-17T03:25:07.470Z,1.63
2023-03-17T03:27:33.930Z,1.83
2023-03-17T03:30:00.932Z,3.60
2023-03-17T03:32:27.620Z,7.50
2023-03-17T03:34:54.029Z,1.60
2023-03-17T03:37:20.505Z,2.67
2023-03-17T03:39:47.630Z,0.90
2023-03-17T03:42:14.037Z,1.00
2023-03-17T03:44:40.728Z,1.50
2023-03-17T03:47:07.566Z,1.87
2023-03-17T03:49:33.955Z,2.70
2023-03-17T03:52:00.456Z,1.75
2023-03-17T03:54:26.839Z,3.30
2023-03-17T03:56:53.156Z,7.43
2023-03-17T03:59:19.509Z,1.87
2023-03-17T04:01:46.069Z,1.60
2023-03-17T04:04:12.659Z,1.00
2023-03-17T04:06:39.589Z,1.55
2023-03-17T04:09:06.205Z,1.35
2023-03-17T04:11:32.529Z,1.97
2023-03-17T04:13:58.955Z,3.00
2023-03-17T04:16:26.164Z,1.27
2023-03-17T04:18:52.652Z,1.48
2023-03-17T04:21:20.498Z,0.90
2023-03-17T04:23:47.204Z,1.37
2023-03-17T04:26:13.735Z,2.78
2023-03-17T04:28:40.421Z,2.67
2023-03-17T04:31:07.662Z,2.47
2023-03-17T04:33:34.062Z,3.00
2023-03-17T04:36:00.534Z,1.47
2023-03-17T04:38:27.004Z,3.72
2023-03-17T04:40:53.393Z,0.88
2023-03-17T04:43:19.751Z,0.98
2023-03-17T04:45:46.453Z,1.88
2023-03-17T04:48:12.916Z,1.57
2023-03-17T04:50:39.576Z,0.93
2023-03-17T04:53:06.813Z,2.47
2023-03-17T04:55:33.218Z,1.02
2023-03-17T04:57:59.545Z,4.05
2023-03-17T05:00:26.017Z,3.20
2023-03-17T05:02:52.429Z,1.00
2023-03-17T05:05:18.833Z,0.82
2023-03-17T05:07:45.336Z,1.08
2023-03-17T05:10:12.456Z,1.02
2023-03-17T05:12:38.865Z,1.70
2023-03-17T05:15:05.709Z,1.23
2023-03-17T05:17:32.125Z,1.60
2023-03-17T05:19:58.499Z,1.20
2023-03-17T05:22:24.908Z,1.08
2023-03-17T05:24:51.229Z,1.30
2023-03-17T05:27:17.629Z,2.25
2023-03-17T05:29:43.992Z,3.05
2023-03-17T05:32:10.374Z,1.75
2023-03-17T05:34:36.840Z,1.95
2023-03-17T05:37:03.369Z,1.80
2023-03-17T05:39:29.755Z,2.22
2023-03-17T05:41:57.072Z,1.10
2023-03-17T05:44:23.396Z,1.60
2023-03-17T05:46:49.728Z,4.22
2023-03-17T05:49:16.174Z,4.90
2023-03-17T05:51:42.583Z,1.85
2023-03-17T05:54:08.976Z,1.25
2023-03-17T05:56:35.899Z,1.58
2023-03-17T05:59:02.337Z,1.10
2023-03-17T06:01:29.403Z,1.33
2023-03-17T06:03:56.091Z,1.73
2023-03-17T06:06:24.507Z,1.00
2023-03-17T06:08:50.868Z,2.17
2023-03-17T06:11:19.789Z,3.33
2023-03-17T06:13:46.936Z,7.63
2023-03-17T06:16:13.987Z,2.33
2023-03-17T06:18:40.957Z,2.05
2023-03-17T06:21:07.331Z,1.10
2023-03-17T06:23:33.797Z,2.65
2023-03-17T06:26:00.497Z,3.80
2023-03-17T06:28:26.870Z,5.28
2023-03-17T06:30:53.234Z,1.58
2023-03-17T06:33:20.008Z,3.17
2023-03-17T06:35:46.722Z,1.63
2023-03-17T06:38:13.446Z,4.77
2023-03-17T06:40:39.821Z,3.83
2023-03-17T06:43:06.194Z,1.92
2023-03-17T06:45:33.095Z,4.13
2023-03-17T06:47:59.709Z,3.58
2023-03-17T06:50:26.136Z,4.83
2023-03-17T06:52:52.548Z,4.25
2023-03-17T06:55:19.242Z,3.15
2023-03-17T06:57:45.748Z,1.58
2023-03-17T07:00:14.137Z,2.17
2023-03-17T07:02:41.216Z,1.93
2023-03-17T07:05:08.214Z,1.77
2023-03-17T07:07:35.539Z,3.90
2023-03-17T07:10:02.071Z,1.88
2023-03-17T07:12:28.802Z,2.05
2023-03-17T07:14:55.182Z,2.57
2023-03-17T07:17:21.513Z,3.35
2023-03-17T07:19:47.904Z,2.40
2023-03-17T07:22:14.300Z,2.15
2023-03-17T07:24:43.046Z,1.45
2023-03-17T07:27:10.112Z,2.83
2023-03-17T07:29:36.647Z,3.28
2023-03-17T07:32:06.135Z,2.30
2023-03-17T07:34:32.519Z,2.30
2023-03-17T07:36:59.429Z,1.92
2023-03-17T07:39:25.907Z,1.43
2023-03-17T07:41:55.111Z,1.35
2023-03-17T07:44:23.036Z,2.08
2023-03-17T07:46:50.112Z,3.33
2023-03-17T07:49:17.265Z,1.50
2023-03-17T07:51:44.034Z,2.63
2023-03-17T07:54:14.811Z,2.78
2023-03-17T07:56:41.705Z,2.15
2023-03-17T07:59:08.680Z,2.38
2023-03-17T08:01:35.647Z,1.77
2023-03-17T08:04:02.685Z,2.97
2023-03-17T08:06:29.994Z,2.22
2023-03-17T08:08:56.879Z,1.92
2023-03-17T08:11:23.477Z,1.58
2023-03-17T08:13:50.371Z,2.75
2023-03-17T08:16:16.903Z,1.90
2023-03-17T08:18:43.287Z,3.55
2023-03-17T08:21:09.751Z,1.42
2023-03-17T08:23:36.474Z,3.83
2023-03-17T08:26:04.428Z,2.65
2023-03-17T08:28:31.800Z,3.33
2023-03-17T08:31:13.467Z,2.15
2023-03-17T08:33:42.080Z,3.08
2023-03-17T08:36:10.156Z,2.85
2023-03-17T08:38:37.897Z,1.70
2023-03-17T08:41:06.791Z,1.87
2023-03-17T08:43:34.185Z,3.28
2023-03-17T08:46:06.542Z,1.90
2023-03-17T08:48:34.441Z,2.55
2023-03-17T08:51:01.364Z,2.40
2023-03-17T08:53:27.759Z,2.47
2023-03-17T08:55:57.695Z,2.17
2023-03-17T08:58:24.587Z,2.83
2023-03-17T09:00:50.995Z,3.65
2023-03-17T09:03:17.434Z,1.90
2023-03-17T09:05:44.100Z,2.13
2023-03-17T09:08:11.949Z,2.15
2023-03-17T09:10:38.528Z,2.42
2023-03-17T09:13:05.054Z,2.90
2023-03-17T09:15:33.965Z,3.83
2023-03-17T09:18:02.159Z,1.60
2023-03-17T09:20:29.010Z,2.60
2023-03-17T09:22:56.429Z,5.22
2023-03-17T09:25:23.618Z,3.67
2023-03-17T09:27:49.968Z,3.00
2023-03-17T09:30:17.578Z,2.47
2023-03-17T09:32:47.468Z,2.40
2023-03-17T09:35:13.924Z,2.63
2023-03-17T09:37:40.301Z,2.45
2023-03-17T09:40:09.069Z,3.95
2023-03-17T09:43:01.285Z,2.20
2023-03-17T09:45:35.530Z,1.88
2023-03-17T09:48:04.851Z,1.98
2023-03-17T09:50:41.013Z,2.67
2023-03-17T09:53:18.010Z,2.63
2023-03-17T09:55:46.471Z,3.57
2023-03-17T09:58:12.920Z,2.88
2023-03-17T10:00:39.402Z,2.85
2023-03-17T10:03:10.034Z,4.28
2023-03-17T10:05:37.022Z,5.75
2023-03-17T10:08:27.327Z,3.53
2023-03-17T10:11:34.408Z,2.60
2023-03-17T10:14:04.797Z,2.55
2023-03-17T10:16:42.958Z,4.05
2023-03-17T10:19:27.334Z,1.67
2023-03-17T10:21:59.032Z,1.80
2023-03-17T10:24:27.947Z,3.67
2023-03-17T10:26:57.733Z,10.02
2023-03-17T10:29:24.256Z,4.15
2023-03-17T10:31:53.303Z,2.83
2023-03-17T10:34:25.544Z,3.80
2023-03-17T10:37:04.126Z,3.08
2023-03-17T10:39:32.729Z,3.97
2023-03-17T10:42:09.352Z,4.38
2023-03-17T10:44:40.928Z,3.63
2023-03-17T10:47:22.680Z,3.63
2023-03-17T10:49:49.478Z,2.10
2023-03-17T10:52:27.741Z,3.53
2023-03-17T10:54:54.680Z,2.75
2023-03-17T10:57:22.081Z,1.75
2023-03-17T10:59:54.049Z,3.03
2023-03-17T11:02:23.179Z,3.08
2023-03-17T11:04:50.027Z,3.42
2023-03-17T11:07:18.552Z,2.47
2023-03-17T11:09:50.661Z,5.32
2023-03-17T11:12:36.580Z,7.07
2023-03-17T11:15:07.095Z,2.50
2023-03-17T11:17:56.273Z,4.03
2023-03-17T11:20:40.082Z,4.60
2023-03-17T11:23:22.370Z,3.70
2023-03-17T11:26:01.845Z,3.23
2023-03-17T11:28:33.040Z,2.15
2023-03-17T11:31:15.381Z,2.55
2023-03-17T11:34:00.089Z,2.80
2023-03-17T11:36:58.729Z,2.88
2023-03-17T11:39:31.229Z,3.43
2023-03-17T11:42:42.917Z,3.95
2023-03-17T11:45:18.160Z,4.70
2023-03-17T11:48:21.464Z,5.65
2023-03-17T11:51:30.266Z,2.38
2023-03-17T11:54:20.217Z,3.23
2023-03-17T11:57:01.123Z,4.95
2023-03-17T11:59:36.600Z,2.35
2023-03-17T12:02:28.735Z,2.45
2023-03-17T12:05:17.385Z,4.60
2023-03-17T12:07:47.757Z,5.00
2023-03-17T12:10:36.341Z,2.25
2023-03-17T12:13:09.689Z,5.10
2023-03-17T12:15:41.759Z,5.18
2023-03-17T12:18:17.946Z,6.07
2023-03-17T12:20:59.867Z,4.37
2023-03-17T12:23:34.529Z,5.05
2023-03-17T12:26:27.667Z,2.50
2023-03-17T12:29:06.774Z,4.18
2023-03-17T12:31:39.676Z,2.72
2023-03-17T12:34:06.389Z,3.27
2023-03-17T12:36:35.336Z,3.25
2023-03-17T12:39:09.376Z,12.27
2023-03-17T12:42:01.497Z,4.82
2023-03-17T12:45:03.928Z,3.42
2023-03-17T12:47:42.758Z,3.20
2023-03-17T12:50:18.262Z,4.65
2023-03-17T12:53:29.555Z,3.25
2023-03-17T12:56:01.370Z,3.70
2023-03-17T12:58:44.599Z,4.45
2023-03-17T13:01:34.188Z,5.30
2023-03-17T13:04:12.646Z,3.40
2023-03-17T13:06:45.466Z,3.90
2023-03-17T13:09:37.284Z,2.15
2023-03-17T13:12:05.761Z,5.30
2023-03-17T13:14:44.276Z,3.93
2023-03-17T13:17:17.239Z,8.55
2023-03-17T13:19:56.704Z,3.33
2023-03-17T13:22:24.674Z,3.25
2023-03-17T13:24:53.197Z,3.35
2023-03-17T13:27:32.022Z,2.50
2023-03-17T13:29:59.698Z,4.95
2023-03-17T13:32:26.342Z,3.50
2023-03-17T13:35:15.952Z,3.08
2023-03-17T13:38:19.963Z,3.25
2023-03-17T13:41:13.624Z,5.73
2023-03-17T13:44:08.519Z,5.68
2023-03-17T13:46:39.002Z,4.65
2023-03-17T13:49:15.054Z,5.78
2023-03-17T13:51:52.724Z,5.57
2023-03-17T13:54:26.046Z,5.37
2023-03-17T13:56:54.910Z,8.45
2023-03-17T13:59:55.798Z,3.75
2023-03-17T14:02:25.443Z,3.80
2023-03-17T14:04:58.049Z,3.72
2023-03-17T14:07:32.318Z,3.80
2023-03-17T14:10:03.372Z,9.27
2023-03-17T14:13:28.385Z,3.58
2023-03-17T14:16:05.497Z,3.35
2023-03-17T14:18:55.865Z,5.00
2023-03-17T14:21:31.660Z,3.00
2023-03-17T14:24:00.740Z,7.47
2023-03-17T14:26:30.013Z,4.43
2023-03-17T14:29:00.576Z,5.72
2023-03-17T14:31:29.168Z,3.72
2023-03-17T14:33:58.608Z,5.53
2023-03-17T14:36:27.534Z,6.47
2023-03-17T14:38:56.564Z,4.25
2023-03-17T14:41:34.653Z,3.25
2023-03-17T14:44:01.992Z,6.93
2023-03-17T14:46:34.454Z,4.77
2023-03-17T14:49:03.985Z,7.05
2023-03-17T14:51:39.152Z,10.95
2023-03-17T14:54:14.195Z,6.55
2023-03-17T14:56:52.901Z,4.03
2023-03-17T14:59:26.972Z,5.57
2023-03-17T15:01:56.334Z,6.60
2023-03-17T15:04:25.747Z,3.10
2023-03-17T15:06:55.293Z,3.13
2023-03-17T15:09:27.918Z,4.93
2023-03-17T15:11:59.239Z,5.20
2023-03-17T15:14:33.258Z,3.42
2023-03-17T15:17:02.863Z,3.70
2023-03-17T15:19:41.728Z,5.90
2023-03-17T15:22:26.703Z,3.55
2023-03-17T15:25:17.873Z,4.10
2023-03-17T15:27:45.068Z,3.53
2023-03-17T15:30:12.972Z,3.05
2023-03-17T15:32:40.353Z,6.43
2023-03-17T15:35:11.345Z,4.82
2023-03-17T15:37:37.757Z,6.03
2023-03-17T15:40:05.570Z,5.40
2023-03-17T15:42:34.539Z,4.60
2023-03-17T15:45:01.553Z,5.93
2023-03-17T15:47:30.877Z,4.15
2023-03-17T15:50:15.522Z,3.70
2023-03-17T15:52:42.360Z,5.93
2023-03-17T15:55:23.958Z,8.35
2023-03-17T15:57:55.160Z,4.63
2023-03-17T16:00:23.626Z,4.60
2023-03-17T16:02:54.483Z,4.03
2023-03-17T16:05:24.576Z,3.08
2023-03-17T16:07:51.053Z,3.97
2023-03-17T16:10:24.252Z,5.38
2023-03-17T16:12:51.389Z,5.03
2023-03-17T16:15:23.923Z,3.87
2023-03-17T16:17:58.275Z,5.90
2023-03-17T16:20:28.190Z,4.25
2023-03-17T16:22:58.534Z,4.72
2023-03-17T16:25:27.973Z,6.30
2023-03-17T16:27:56.982Z,7.17
2023-03-17T16:30:32.906Z,4.35
2023-03-17T16:33:02.460Z,3.78
2023-03-17T16:35:29.459Z,5.55
2023-03-17T16:37:55.893Z,4.18
2023-03-17T16:40:26.165Z,3.07
2023-03-17T16:42:53.139Z,5.32
2023-03-17T16:45:26.455Z,4.10
2023-03-17T16:47:53.924Z,4.55
2023-03-17T16:50:22.838Z,4.50
2023-03-17T16:52:49.500Z,6.57
2023-03-17T16:55:19.614Z,3.35
2023-03-17T16:57:47.969Z,5.72
2023-03-17T17:00:18.824Z,5.18
2023-03-17T17:02:47.406Z,4.57
2023-03-17T17:05:16.117Z,5.17
2023-03-17T17:07:42.972Z,3.88
2023-03-17T17:10:13.658Z,4.25
2023-03-17T17:12:40.522Z,6.38
2023-03-17T17:15:07.799Z,7.35
2023-03-17T17:17:35.532Z,5.03
2023-03-17T17:20:02.174Z,3.33
2023-03-17T17:22:29.310Z,3.70
2023-03-17T17:24:55.748Z,5.30
2023-03-17T17:27:22.228Z,11.50
2023-03-17T17:29:48.715Z,10.17
2023-03-17T17:32:18.004Z,11.57
2023-03-17T17:34:44.427Z,9.45
2023-03-17T17:37:11.565Z,8.88
2023-03-17T17:39:38.381Z,15.75
2023-03-17T17:42:04.943Z,12.07
2023-03-17T17:44:31.270Z,9.25
2023-03-17T17:46:58.303Z,8.63
2023-03-17T17:49:24.701Z,8.50
2023-03-17T17:51:51.055Z,13.38
2023-03-17T17:54:17.416Z,5.53
2023-03-17T17:56:46.733Z,11.15
2023-03-17T17:59:14.356Z,8.10
2023-03-17T18:01:40.881Z,5.07
2023-03-17T18:04:07.569Z,7.30
2023-03-17T18:06:34.006Z,8.83
2023-03-17T18:09:00.586Z,5.07
2023-03-17T18:11:27.324Z,8.23
2023-03-17T18:13:53.727Z,5.28
2023-03-17T18:16:21.401Z,9.68
2023-03-17T18:18:47.768Z,8.93
2023-03-17T18:21:14.391Z,7.57
2023-03-17T18:23:46.883Z,5.30
2023-03-17T18:26:15.079Z,7.82
2023-03-17T18:28:42.504Z,9.30
2023-03-17T18:31:15.443Z,8.10
2023-03-17T18:33:44.381Z,6.78
2023-03-17T18:36:11.560Z,7.60
2023-03-17T18:38:38.831Z,9.70
2023-03-17T18:41:07.636Z,6.72
2023-03-17T18:43:34.043Z,8.87
2023-03-17T18:46:00.411Z,7.68
2023-03-17T18:48:26.823Z,10.20
2023-03-17T18:50:53.220Z,9.55
2023-03-17T18:53:19.642Z,6.85
2023-03-17T18:55:46.226Z,8.30
2023-03-17T18:58:12.743Z,9.50
2023-03-17T19:00:39.244Z,9.85
2023-03-17T19:03:06.177Z,10.35
2023-03-17T19:05:37.570Z,7.00
2023-03-17T19:08:04.058Z,8.67
2023-03-17T19:10:31.380Z,6.25
2023-03-17T19:12:58.879Z,5.43
2023-03-17T19:15:25.662Z,8.73
2023-03-17T19:17:52.077Z,5.68
2023-03-17T19:20:20.007Z,6.57
2023-03-17T19:22:46.461Z,10.88
2023-03-17T19:25:13.071Z,6.43
2023-03-17T19:27:39.963Z,7.35
2023-03-17T19:30:07.062Z,9.38
2023-03-17T19:32:33.488Z,6.17
2023-03-17T19:34:59.851Z,10.13
2023-03-17T19:37:26.266Z,6.00
2023-03-17T19:39:52.731Z,8.05
2023-03-17T19:42:19.156Z,8.25
2023-03-17T19:44:45.516Z,5.67
2023-03-17T19:47:11.926Z,3.85
2023-03-17T19:49:38.433Z,6.05
2023-03-17T19:52:06.524Z,4.63
2023-03-17T19:54:33.021Z,7.90
2023-03-17T19:56:59.518Z,4.27
2023-03-17T19:59:25.863Z,4.05
2023-03-17T20:01:52.438Z,6.05
2023-03-17T20:04:19.553Z,6.35
2023-03-17T20:06:52.180Z,7.70
2023-03-17T20:09:19.085Z,8.93
2023-03-17T20:11:45.811Z,5.70
2023-03-17T20:14:12.140Z,7.35
2023-03-17T20:16:39.824Z,6.47
2023-03-17T20:19:08.246Z,5.65
2023-03-17T20:21:34.702Z,3.60
2023-03-17T20:24:01.659Z,4.90
2023-03-17T20:26:28.796Z,6.70
2023-03-17T20:28:55.642Z,6.78
2023-03-17T20:31:22.732Z,5.82
2023-03-17T20:33:49.240Z,8.47
2023-03-17T20:36:15.940Z,6.90
2023-03-17T20:38:43.723Z,8.00
2023-03-17T20:41:17.183Z,4.45
2023-03-17T20:43:44.751Z,5.45
2023-03-17T20:46:16.569Z,3.33
2023-03-17T20:48:44.285Z,6.55
2023-03-17T20:51:18.627Z,6.63
2023-03-17T20:53:46.544Z,4.57
2023-03-17T20:56:19.668Z,5.50
2023-03-17T20:58:48.342Z,6.90
2023-03-17T21:01:16.983Z,6.53
2023-03-17T21:03:45.641Z,4.30
2023-03-17T21:06:12.569Z,5.50
2023-03-17T21:08:39.022Z,6.53
2023-03-17T21:11:08.037Z,5.43
2023-03-17T21:13:34.884Z,5.65
2023-03-17T21:16:02.199Z,3.67
2023-03-17T21:18:29.552Z,5.22
2023-03-17T21:20:56.649Z,6.57
2023-03-17T21:23:23.704Z,5.07
2023-03-17T21:25:55.351Z,5.10
2023-03-17T21:28:22.666Z,5.45
2023-03-17T21:30:50.011Z,7.93
2023-03-17T21:33:16.610Z,5.75
2023-03-17T21:35:43.078Z,5.90
2023-03-17T21:38:10.154Z,5.15
2023-03-17T21:40:36.896Z,4.15
2023-03-17T21:43:03.679Z,5.45
2023-03-17T21:45:30.244Z,5.22
2023-03-17T21:47:56.862Z,5.33
2023-03-17T21:50:23.240Z,4.57
2023-03-17T21:52:49.966Z,9.13
2023-03-17T21:55:16.500Z,8.23
2023-03-17T21:57:43.107Z,5.78
2023-03-17T22:00:11.628Z,9.67
2023-03-17T22:02:38.141Z,3.17
2023-03-17T22:05:05.176Z,7.32
2023-03-17T22:07:31.584Z,4.97
2023-03-17T22:09:58.268Z,4.60
2023-03-17T22:12:24.745Z,4.13
2023-03-17T22:14:51.277Z,6.18
2023-03-17T22:17:17.592Z,6.13
2023-03-17T22:19:44.069Z,5.57
2023-03-17T22:22:11.279Z,9.57
2023-03-17T22:24:38.233Z,5.47
2023-03-17T22:27:05.878Z,4.30
2023-03-17T22:29:32.486Z,8.55
2023-03-17T22:31:59.156Z,4.18
2023-03-17T22:34:25.578Z,9.85
2023-03-17T22:36:51.942Z,6.83
2023-03-17T22:39:18.373Z,10.82
2023-03-17T22:41:44.784Z,4.47
2023-03-17T22:44:11.598Z,9.82
2023-03-17T22:46:40.701Z,8.90
2023-03-17T22:49:07.813Z,6.57
2023-03-17T22:51:34.508Z,5.90
2023-03-17T22:54:00.991Z,10.25
2023-03-17T22:56:27.561Z,4.13
2023-03-17T22:58:54.880Z,6.60
2023-03-17T23:01:23.868Z,5.20
2023-03-17T23:03:50.527Z,7.22
2023-03-17T23:06:17.717Z,5.28
2023-03-17T23:08:45.718Z,6.40
2023-03-17T23:11:16.326Z,7.68
2023-03-17T23:13:43.234Z,6.80
2023-03-17T23:16:09.827Z,6.55
2023-03-17T23:18:36.627Z,7.43
2023-03-17T23:21:04.702Z,5.03
2023-03-17T23:23:32.028Z,6.82
2023-03-17T23:25:58.778Z,8.33
2023-03-17T23:28:25.571Z,5.15
2023-03-17T23:30:52.568Z,7.90
2023-03-17T23:33:21.549Z,7.88
2023-03-17T23:35:50.502Z,5.63
2023-03-17T23:38:19.501Z,6.20
2023-03-17T23:40:46.983Z,9.75
2023-03-17T23:43:14.303Z,8.95
2023-03-17T23:45:41.458Z,7.18
2023-03-17T23:48:09.942Z,9.80
2023-03-17T23:50:36.516Z,7.60
2023-03-17T23:53:02.971Z,8.35
2023-03-17T23:55:29.688Z,4.40
2023-03-17T23:57:56.267Z,6.10
